createdAt,value
2022-11-16T00:02:12.571Z,6.38
2022-11-16T00:04:38.904Z,6.22
2022-11-16T00:07:05.499Z,6.75
2022-11-16T00:09:32.331Z,6.30
2022-11-16T00:11:59.762Z,6.13
2022-11-16T00:14:27.381Z,6.45
2022-11-16T00:16:53.658Z,5.60
2022-11-16T00:19:20.074Z,6.05
2022-11-16T00:21:46.411Z,6.15
2022-11-16T00:24:13.655Z,6.40
2022-11-16T00:26:40.015Z,6.20
2022-11-16T00:29:06.437Z,7.13
2022-11-16T00:31:32.711Z,6.18
2022-11-16T00:33:58.961Z,6.75
2022-11-16T00:36:25.254Z,7.10
2022-11-16T00:38:52.554Z,6.38
2022-11-16T00:41:18.821Z,7.05
2022-11-16T00:43:45.085Z,6.35
2022-11-16T00:46:11.361Z,6.32
2022-11-16T00:48:37.673Z,6.75
2022-11-16T00:51:04.372Z,6.30
2022-11-16T00:53:30.735Z,7.32
2022-11-16T00:55:57.050Z,6.15
2022-11-16T00:58:23.357Z,6.75
2022-11-16T01:00:49.687Z,6.35
2022-11-16T01:03:16.148Z,5.65
2022-11-16T01:05:42.421Z,7.03
2022-11-16T01:08:09.062Z,6.53
2022-11-16T01:10:37.778Z,7.05
2022-11-16T01:13:04.051Z,7.55
2022-11-16T01:15:30.314Z,6.40
2022-11-16T01:17:56.681Z,9.23
2022-11-16T01:20:24.811Z,8.63
2022-11-16T01:22:51.430Z,9.63
2022-11-16T01:25:17.741Z,9.18
2022-11-16T01:27:44.032Z,8.10
2022-11-16T01:30:11.668Z,9.18
2022-11-16T01:32:38.249Z,10.43
2022-11-16T01:35:05.462Z,9.77
2022-11-16T01:37:32.219Z,9.50
2022-11-16T01:39:58.810Z,9.60
2022-11-16T01:42:27.174Z,9.80
2022-11-16T01:45:13.709Z,10.10
2022-11-16T01:47:40.000Z,8.55
2022-11-16T01:50:09.042Z,9.23
2022-11-16T01:52:36.497Z,7.97
2022-11-16T01:55:03.816Z,7.75
2022-11-16T01:57:35.458Z,8.40
2022-11-16T02:00:03.714Z,8.48
2022-11-16T02:02:29.989Z,5.28
2022-11-16T02:04:57.891Z,8.38
2022-11-16T02:08:01.951Z,7.47
2022-11-16T02:10:28.194Z,8.38
2022-11-16T02:13:03.663Z,9.38
2022-11-16T02:15:47.876Z,9.55
2022-11-16T02:18:19.993Z,10.13
2022-11-16T02:20:46.235Z,9.10
2022-11-16T02:23:31.424Z,9.25
2022-11-16T02:26:01.062Z,9.13
2022-11-16T02:28:36.587Z,9.95
2022-11-16T02:31:05.239Z,8.77
2022-11-16T02:33:35.454Z,9.93
2022-11-16T02:36:03.634Z,11.23
2022-11-16T02:38:32.981Z,10.55
2022-11-16T02:41:04.942Z,9.10
2022-11-16T02:43:34.131Z,11.23
2022-11-16T02:46:03.986Z,9.25
2022-11-16T02:48:34.436Z,9.68
2022-11-16T02:51:02.220Z,10.82
2022-11-16T02:53:28.482Z,11.18
2022-11-16T02:55:56.295Z,10.18
2022-11-16T02:58:24.495Z,11.30
2022-11-16T03:00:51.534Z,9.55
2022-11-16T03:03:23.721Z,10.70
2022-11-16T03:05:54.749Z,10.93
2022-11-16T03:08:38.106Z,10.30
2022-11-16T03:11:24.826Z,10.70
2022-11-16T03:13:52.165Z,10.50
2022-11-16T03:16:30.041Z,11.00
2022-11-16T03:18:56.686Z,9.57
2022-11-16T03:21:28.238Z,10.23
2022-11-16T03:23:54.566Z,10.57
2022-11-16T03:26:23.354Z,9.48
2022-11-16T03:28:52.725Z,11.43
2022-11-16T03:31:24.698Z,8.85
2022-11-16T03:33:53.688Z,9.35
2022-11-16T03:36:31.602Z,9.48
2022-11-16T03:39:01.039Z,10.05
2022-11-16T03:41:28.384Z,9.23
2022-11-16T03:43:55.103Z,10.02
2022-11-16T03:46:21.392Z,9.30
2022-11-16T03:48:47.686Z,9.98
2022-11-16T03:51:14.165Z,9.18
2022-11-16T03:53:40.676Z,8.75
2022-11-16T03:56:07.090Z,9.15
2022-11-16T03:58:33.624Z,8.90
2022-11-16T04:01:00.449Z,9.35
2022-11-16T04:03:26.789Z,8.75
2022-11-16T04:06:11.847Z,7.75
2022-11-16T04:08:56.794Z,7.68
2022-11-16T04:11:41.502Z,7.78
2022-11-16T04:14:35.683Z,7.20
2022-11-16T04:17:20.834Z,6.78
2022-11-16T04:20:05.880Z,7.30
2022-11-16T04:22:53.083Z,6.70
2022-11-16T04:25:21.581Z,6.15
2022-11-16T04:28:06.980Z,6.38
2022-11-16T04:30:52.005Z,6.57
2022-11-16T04:33:37.045Z,5.45
2022-11-16T04:36:22.270Z,5.68
2022-11-16T04:38:48.526Z,5.72
2022-11-16T04:41:33.793Z,5.53
2022-11-16T04:44:00.129Z,5.03
2022-11-16T04:46:44.853Z,5.25
2022-11-16T04:49:11.137Z,6.10
2022-11-16T04:51:37.382Z,5.55
2022-11-16T04:54:03.678Z,4.90
2022-11-16T04:56:29.952Z,5.13
2022-11-16T04:58:56.193Z,6.05
2022-11-16T05:01:42.488Z,6.18
2022-11-16T05:04:08.821Z,6.25
2022-11-16T05:06:35.110Z,5.43
2022-11-16T05:09:01.417Z,4.45
2022-11-16T05:11:27.783Z,5.30
2022-11-16T05:13:54.098Z,5.30
2022-11-16T05:16:20.370Z,4.03
2022-11-16T05:19:06.601Z,5.32
2022-11-16T05:21:32.873Z,4.13
2022-11-16T05:24:17.949Z,3.78
2022-11-16T05:26:44.279Z,4.10
2022-11-16T05:29:10.527Z,5.45
2022-11-16T05:31:40.414Z,5.20
2022-11-16T05:34:07.033Z,5.18
2022-11-16T05:36:33.298Z,5.13
2022-11-16T05:38:59.557Z,5.53
2022-11-16T05:41:25.846Z,4.28
2022-11-16T05:43:52.110Z,5.00
2022-11-16T05:46:18.371Z,4.45
2022-11-16T05:48:44.697Z,5.05
2022-11-16T05:51:10.961Z,5.68
2022-11-16T05:53:37.272Z,5.13
2022-11-16T05:56:03.645Z,4.18
2022-11-16T05:58:29.968Z,3.85
2022-11-16T06:00:57.313Z,4.10
2022-11-16T06:03:23.671Z,3.55
2022-11-16T06:05:53.165Z,4.45
2022-11-16T06:08:19.436Z,3.75
2022-11-16T06:10:45.689Z,3.92
2022-11-16T06:13:11.933Z,4.68
2022-11-16T06:15:38.411Z,4.30
2022-11-16T06:18:05.089Z,4.47
2022-11-16T06:20:31.356Z,5.65
2022-11-16T06:22:57.629Z,4.68
2022-11-16T06:25:23.911Z,3.63
2022-11-16T06:27:50.247Z,4.05
2022-11-16T06:30:16.578Z,4.00
2022-11-16T06:32:42.847Z,3.17
2022-11-16T06:35:09.180Z,4.30
2022-11-16T06:37:35.470Z,4.25
2022-11-16T06:40:01.874Z,4.22
2022-11-16T06:42:28.114Z,4.38
2022-11-16T06:44:54.496Z,3.67
2022-11-16T06:47:20.829Z,3.35
2022-11-16T06:49:47.520Z,3.28
2022-11-16T06:52:13.869Z,3.30
2022-11-16T06:54:40.123Z,3.47
2022-11-16T06:57:06.371Z,3.97
2022-11-16T06:59:32.621Z,4.82
2022-11-16T07:01:58.932Z,3.83
2022-11-16T07:04:25.222Z,3.60
2022-11-16T07:06:52.602Z,4.10
2022-11-16T07:09:18.892Z,3.00
2022-11-16T07:11:45.131Z,3.53
2022-11-16T07:14:12.202Z,3.95
2022-11-16T07:16:38.457Z,4.13
2022-11-16T07:19:04.915Z,3.40
2022-11-16T07:21:31.198Z,4.22
2022-11-16T07:23:57.600Z,4.35
2022-11-16T07:26:23.914Z,4.28
2022-11-16T07:28:50.209Z,4.90
2022-11-16T07:31:16.549Z,5.07
2022-11-16T07:33:42.823Z,5.10
2022-11-16T07:36:10.235Z,5.50
2022-11-16T07:38:36.768Z,4.60
2022-11-16T07:41:07.385Z,4.78
2022-11-16T07:43:37.015Z,4.00
2022-11-16T07:48:53.298Z,4.93
2022-11-16T07:51:20.091Z,4.78
2022-11-16T07:53:46.386Z,4.28
2022-11-16T07:56:12.888Z,4.13
2022-11-16T07:58:39.507Z,3.95
2022-11-16T08:01:06.890Z,4.57
2022-11-16T08:03:33.801Z,3.80
2022-11-16T08:06:01.134Z,4.47
2022-11-16T08:08:27.431Z,3.88
2022-11-16T08:10:58.760Z,4.50
2022-11-16T08:13:25.033Z,3.80
2022-11-16T08:15:51.293Z,4.10
2022-11-16T08:18:19.409Z,4.10
2022-11-16T08:20:45.956Z,3.58
2022-11-16T08:23:12.379Z,3.92
2022-11-16T08:25:38.651Z,3.28
2022-11-16T08:28:04.993Z,3.75
2022-11-16T08:30:31.263Z,4.15
2022-11-16T08:32:57.532Z,4.57
2022-11-16T08:35:23.882Z,3.17
2022-11-16T08:37:50.226Z,3.78
2022-11-16T08:40:16.661Z,4.18
2022-11-16T08:42:44.027Z,4.18
2022-11-16T08:45:10.568Z,3.05
2022-11-16T08:47:36.809Z,3.72
2022-11-16T08:50:03.418Z,4.65
2022-11-16T08:52:29.720Z,3.72
2022-11-16T08:54:55.973Z,3.95
2022-11-16T08:57:22.250Z,4.57
2022-11-16T08:59:48.510Z,4.18
2022-11-16T09:02:14.873Z,4.60
2022-11-16T09:04:41.233Z,3.90
2022-11-16T09:07:07.534Z,3.67
2022-11-16T09:09:33.864Z,4.65
2022-11-16T09:12:00.163Z,4.32
2022-11-16T09:14:28.905Z,4.35
2022-11-16T09:16:55.175Z,4.38
2022-11-16T09:19:21.463Z,3.70
2022-11-16T09:21:47.761Z,5.18
2022-11-16T09:24:14.056Z,3.97
2022-11-16T09:26:40.351Z,3.38
2022-11-16T09:29:06.660Z,4.15
2022-11-16T09:31:34.696Z,4.20
2022-11-16T09:34:01.034Z,3.85
2022-11-16T09:36:27.793Z,3.25
2022-11-16T09:39:25.867Z,3.88
2022-11-16T09:41:55.850Z,4.05
2022-11-16T09:44:24.980Z,3.17
2022-11-16T09:46:55.906Z,3.20
2022-11-16T09:49:25.908Z,2.83
2022-11-16T09:51:55.666Z,4.55
2022-11-16T09:54:24.246Z,2.88
2022-11-16T09:56:56.785Z,4.63
2022-11-16T09:59:26.074Z,3.65
2022-11-16T10:02:02.695Z,2.95
2022-11-16T10:04:57.751Z,3.95
2022-11-16T10:07:27.749Z,3.50
2022-11-16T10:09:55.811Z,2.65
2022-11-16T10:12:26.611Z,2.40
2022-11-16T10:15:01.461Z,3.50
2022-11-16T10:17:27.698Z,3.45
2022-11-16T10:20:05.129Z,2.78
2022-11-16T10:22:41.142Z,2.63
2022-11-16T10:25:13.123Z,2.78
2022-11-16T10:27:42.628Z,2.67
2022-11-16T10:30:14.049Z,3.50
2022-11-16T10:32:49.303Z,3.08
2022-11-16T10:37:46.490Z,2.45
2022-11-16T10:40:16.760Z,3.65
2022-11-16T10:42:45.387Z,2.60
2022-11-16T10:45:15.323Z,3.42
2022-11-16T10:47:59.810Z,2.90
2022-11-16T10:50:46.723Z,2.65
2022-11-16T10:53:14.738Z,3.03
2022-11-16T10:55:41.351Z,2.72
2022-11-16T10:58:07.709Z,2.65
2022-11-16T11:00:34.019Z,2.75
2022-11-16T11:03:00.471Z,2.53
2022-11-16T11:05:27.008Z,2.45
2022-11-16T11:08:04.846Z,2.58
2022-11-16T11:10:35.744Z,2.30
2022-11-16T11:13:08.117Z,2.65
2022-11-16T11:15:34.485Z,2.65
2022-11-16T11:18:15.807Z,7.18
2022-11-16T11:20:45.327Z,3.75
2022-11-16T11:23:17.525Z,7.07
2022-11-16T11:25:50.046Z,3.00
2022-11-16T11:28:19.105Z,7.57
2022-11-16T11:30:57.290Z,6.07
2022-11-16T11:33:24.498Z,3.38
2022-11-16T11:35:58.741Z,2.70
2022-11-16T11:38:25.413Z,2.30
2022-11-16T11:40:59.325Z,2.70
2022-11-16T11:43:26.631Z,2.72
2022-11-16T11:46:19.544Z,2.35
2022-11-16T11:48:49.528Z,2.95
2022-11-16T11:51:25.331Z,3.05
2022-11-16T11:53:56.098Z,3.20
2022-11-16T11:56:22.893Z,3.72
2022-11-16T11:58:49.462Z,3.35
2022-11-16T12:01:34.302Z,3.67
2022-11-16T12:04:19.220Z,2.33
2022-11-16T12:07:04.371Z,3.65
2022-11-16T12:09:30.648Z,2.53
2022-11-16T12:12:20.181Z,2.83
2022-11-16T12:15:22.068Z,3.40
2022-11-16T12:18:00.522Z,2.97
2022-11-16T12:20:44.413Z,2.72
2022-11-16T12:23:16.636Z,2.45
2022-11-16T12:25:45.685Z,3.03
2022-11-16T12:28:28.926Z,3.05
2022-11-16T12:31:13.292Z,2.65
2022-11-16T12:33:40.135Z,4.32
2022-11-16T12:36:09.574Z,2.67
2022-11-16T12:38:40.638Z,2.60
2022-11-16T12:41:22.458Z,2.75
2022-11-16T12:43:59.802Z,2.92
2022-11-16T12:46:44.943Z,3.08
2022-11-16T12:49:24.210Z,2.17
2022-11-16T12:52:04.989Z,2.78
2022-11-16T12:55:19.088Z,2.38
2022-11-16T12:57:59.196Z,2.10
2022-11-16T13:00:26.414Z,2.45
2022-11-16T13:03:01.856Z,2.38
2022-11-16T13:05:37.254Z,2.50
2022-11-16T13:08:07.857Z,1.83
2022-11-16T13:10:35.693Z,2.60
2022-11-16T13:15:51.941Z,2.42
2022-11-16T13:18:19.854Z,2.85
2022-11-16T13:20:58.455Z,2.42
2022-11-16T13:23:45.021Z,2.53
2022-11-16T13:26:22.079Z,3.05
2022-11-16T13:28:59.120Z,2.50
2022-11-16T13:31:30.452Z,2.55
2022-11-16T13:34:01.182Z,2.17
2022-11-16T13:36:46.123Z,2.72
2022-11-16T13:39:18.698Z,1.98
2022-11-16T13:41:49.089Z,2.42
2022-11-16T13:44:20.043Z,2.20
2022-11-16T13:46:55.902Z,2.70
2022-11-16T13:49:40.868Z,2.35
2022-11-16T13:52:31.546Z,2.13
2022-11-16T13:54:55.979Z,2.35
2022-11-16T13:57:25.063Z,2.40
2022-11-16T14:00:07.748Z,2.28
2022-11-16T14:02:36.022Z,2.33
2022-11-16T14:05:13.402Z,2.58
2022-11-16T14:07:44.774Z,2.22
2022-11-16T14:10:11.827Z,3.17
2022-11-16T14:12:38.142Z,2.13
2022-11-16T14:15:19.113Z,2.30
2022-11-16T14:17:57.635Z,1.70
2022-11-16T14:20:34.244Z,1.80
2022-11-16T14:23:00.496Z,2.03
2022-11-16T14:25:26.731Z,2.22
2022-11-16T14:28:09.002Z,2.25
2022-11-16T14:30:43.186Z,2.10
2022-11-16T14:33:12.894Z,1.85
2022-11-16T14:35:39.624Z,2.05
2022-11-16T14:38:29.054Z,1.92
2022-11-16T14:40:59.402Z,2.00
2022-11-16T14:43:29.314Z,1.83
2022-11-16T14:46:18.964Z,2.20
2022-11-16T14:48:45.840Z,2.30
2022-11-16T14:51:29.923Z,2.55
2022-11-16T14:54:04.978Z,2.25
2022-11-16T14:56:31.244Z,2.67
2022-11-16T14:59:01.303Z,2.67
2022-11-16T15:01:39.170Z,1.45
2022-11-16T15:04:11.876Z,2.60
2022-11-16T15:06:43.543Z,1.50
2022-11-16T15:09:14.326Z,3.05
2022-11-16T15:11:59.992Z,2.60
2022-11-16T15:16:53.793Z,2.42
2022-11-16T15:19:20.370Z,2.05
2022-11-16T15:21:53.855Z,1.73
2022-11-16T15:24:31.777Z,1.95
2022-11-16T15:27:17.138Z,2.55
2022-11-16T15:29:43.398Z,1.85
2022-11-16T15:32:14.545Z,1.70
2022-11-16T15:34:40.890Z,3.58
2022-11-16T15:37:10.258Z,2.35
2022-11-16T15:39:36.581Z,2.08
2022-11-16T15:42:04.227Z,2.15
2022-11-16T15:44:31.822Z,2.45
2022-11-16T15:46:58.157Z,1.98
2022-11-16T15:49:35.489Z,3.28
2022-11-16T15:52:02.001Z,2.50
2022-11-16T15:54:51.139Z,2.53
2022-11-16T15:57:18.612Z,2.72
2022-11-16T15:59:48.737Z,2.72
2022-11-16T16:02:19.631Z,2.72
2022-11-16T16:04:45.961Z,3.20
2022-11-16T16:07:13.504Z,3.05
2022-11-16T16:09:40.558Z,2.90
2022-11-16T16:12:19.077Z,2.63
2022-11-16T16:14:45.846Z,3.33
2022-11-16T16:17:21.125Z,2.50
2022-11-16T16:22:52.197Z,3.03
2022-11-16T16:25:28.646Z,3.55
2022-11-16T16:27:54.911Z,3.97
2022-11-16T16:30:21.284Z,2.08
2022-11-16T16:32:49.674Z,2.78
2022-11-16T16:35:17.561Z,2.50
2022-11-16T16:37:43.902Z,3.10
2022-11-16T16:40:10.402Z,2.75
2022-11-16T16:42:36.649Z,2.58
2022-11-16T16:45:03.114Z,3.83
2022-11-16T16:47:30.726Z,3.22
2022-11-16T16:49:57.110Z,3.22
2022-11-16T16:52:23.514Z,2.55
2022-11-16T16:54:49.785Z,2.88
2022-11-16T16:57:17.165Z,3.47
2022-11-16T16:59:45.323Z,2.83
2022-11-16T17:02:12.331Z,3.13
2022-11-16T17:04:38.618Z,3.28
2022-11-16T17:07:05.199Z,2.78
2022-11-16T17:09:31.585Z,2.88
2022-11-16T17:11:57.829Z,2.53
2022-11-16T17:14:24.599Z,3.40
2022-11-16T17:16:51.352Z,2.90
2022-11-16T17:19:17.941Z,5.10
2022-11-16T17:21:44.189Z,3.38
2022-11-16T17:24:10.551Z,4.10
2022-11-16T17:26:36.805Z,2.72
2022-11-16T17:29:03.168Z,3.47
2022-11-16T17:31:29.473Z,3.28
2022-11-16T17:33:57.591Z,3.78
2022-11-16T17:36:23.844Z,3.83
2022-11-16T17:38:50.096Z,4.13
2022-11-16T17:41:17.937Z,2.88
2022-11-16T17:43:45.254Z,4.65
2022-11-16T17:46:12.767Z,3.03
2022-11-16T17:48:39.836Z,3.25
2022-11-16T17:51:06.097Z,4.40
2022-11-16T17:53:33.157Z,4.60
2022-11-16T17:55:59.489Z,3.40
2022-11-16T17:58:25.741Z,3.45
2022-11-16T18:00:52.122Z,4.03
2022-11-16T18:03:18.579Z,3.50
2022-11-16T18:05:44.854Z,4.10
2022-11-16T18:08:11.149Z,2.83
2022-11-16T18:10:38.285Z,4.55
2022-11-16T18:13:05.309Z,3.45
2022-11-16T18:15:40.871Z,3.47
2022-11-16T18:18:08.517Z,3.03
2022-11-16T18:20:36.326Z,3.15
2022-11-16T18:23:03.244Z,3.38
2022-11-16T18:25:29.524Z,3.33
2022-11-16T18:27:55.935Z,3.65
2022-11-16T18:30:23.203Z,3.03
2022-11-16T18:32:49.990Z,2.65
2022-11-16T18:35:16.533Z,3.97
2022-11-16T18:37:43.122Z,3.10
2022-11-16T18:40:09.786Z,3.78
2022-11-16T18:42:36.773Z,3.78
2022-11-16T18:45:03.129Z,2.70
2022-11-16T18:47:29.424Z,3.63
2022-11-16T18:49:55.713Z,3.03
2022-11-16T18:52:21.988Z,3.17
2022-11-16T18:54:48.312Z,2.83
2022-11-16T18:57:14.570Z,3.03
2022-11-16T18:59:40.825Z,3.10
2022-11-16T19:02:07.148Z,3.55
2022-11-16T19:04:33.453Z,2.75
2022-11-16T19:06:59.754Z,3.58
2022-11-16T19:09:26.070Z,3.50
2022-11-16T19:11:52.450Z,4.72
2022-11-16T19:14:18.862Z,2.53
2022-11-16T19:16:54.001Z,3.15
2022-11-16T19:19:22.179Z,3.45
2022-11-16T19:21:48.545Z,3.40
2022-11-16T19:24:14.807Z,3.35
2022-11-16T19:26:41.104Z,2.83
2022-11-16T19:29:07.503Z,2.65
2022-11-16T19:31:33.937Z,2.58
2022-11-16T19:34:01.169Z,3.00
2022-11-16T19:36:28.028Z,3.42
2022-11-16T19:38:54.453Z,3.40
2022-11-16T19:41:22.313Z,2.85
2022-11-16T19:43:49.292Z,3.50
2022-11-16T19:46:16.629Z,2.80
2022-11-16T19:48:43.666Z,3.22
2022-11-16T19:51:10.978Z,2.88
2022-11-16T19:53:38.050Z,3.60
2022-11-16T19:56:04.901Z,3.25
2022-11-16T19:58:32.055Z,2.60
2022-11-16T20:01:02.069Z,3.05
2022-11-16T20:03:28.407Z,2.83
2022-11-16T20:06:02.956Z,3.10
2022-11-16T20:08:29.204Z,3.25
2022-11-16T20:10:55.487Z,2.78
2022-11-16T20:13:22.039Z,3.05
2022-11-16T20:15:48.299Z,2.88
2022-11-16T20:18:14.763Z,4.05
2022-11-16T20:20:41.131Z,4.60
2022-11-16T20:23:07.461Z,2.75
2022-11-16T20:25:33.765Z,2.35
2022-11-16T20:28:00.211Z,3.50
2022-11-16T20:30:26.623Z,4.10
2022-11-16T20:32:52.942Z,2.63
2022-11-16T20:35:19.401Z,2.80
2022-11-16T20:37:47.055Z,2.80
2022-11-16T20:40:13.623Z,2.60
2022-11-16T20:42:39.955Z,3.50
2022-11-16T20:45:06.788Z,2.63
2022-11-16T20:47:33.082Z,2.95
2022-11-16T20:49:59.362Z,2.63
2022-11-16T20:52:25.766Z,3.03
2022-11-16T20:54:52.070Z,2.67
2022-11-16T20:57:18.327Z,2.08
2022-11-16T20:59:44.635Z,3.22
2022-11-16T21:02:11.553Z,2.58
2022-11-16T21:04:37.851Z,3.22
2022-11-16T21:07:04.411Z,2.20
2022-11-16T21:09:50.733Z,2.97
2022-11-16T21:12:41.521Z,2.72
2022-11-16T21:15:09.276Z,2.97
2022-11-16T21:17:35.963Z,2.95
2022-11-16T21:20:26.246Z,3.33
2022-11-16T21:22:50.189Z,3.03
2022-11-16T21:25:17.022Z,3.22
2022-11-16T21:27:43.281Z,3.53
2022-11-16T21:30:09.781Z,3.35
2022-11-16T21:32:36.028Z,3.90
2022-11-16T21:35:02.288Z,3.78
2022-11-16T21:37:28.554Z,2.63
2022-11-16T21:39:54.806Z,3.50
2022-11-16T21:42:21.055Z,3.25
2022-11-16T21:44:47.348Z,3.30
2022-11-16T21:47:14.018Z,2.97
2022-11-16T21:50:02.427Z,3.38
2022-11-16T21:52:26.810Z,2.72
2022-11-16T21:54:59.189Z,3.42
2022-11-16T21:57:25.446Z,2.60
2022-11-16T21:59:51.709Z,2.35
2022-11-16T22:02:18.119Z,2.53
2022-11-16T22:05:02.974Z,3.38
2022-11-16T22:07:38.524Z,8.30
2022-11-16T22:10:06.174Z,2.03
2022-11-16T22:12:32.769Z,2.17
2022-11-16T22:14:59.032Z,2.50
2022-11-16T22:17:25.409Z,2.40
2022-11-16T22:19:51.703Z,2.50
2022-11-16T22:22:17.950Z,3.10
2022-11-16T22:24:44.465Z,3.03
2022-11-16T22:27:10.829Z,3.75
2022-11-16T22:29:37.092Z,2.50
2022-11-16T22:32:03.405Z,2.40
2022-11-16T22:34:29.681Z,2.42
2022-11-16T22:36:55.953Z,2.45
2022-11-16T22:39:22.192Z,2.00
2022-11-16T22:41:48.538Z,2.22
2022-11-16T22:44:14.798Z,2.08
2022-11-16T22:46:41.086Z,3.25
2022-11-16T22:49:07.399Z,2.05
2022-11-16T22:51:33.658Z,3.53
2022-11-16T22:54:00.959Z,2.10
2022-11-16T22:56:28.092Z,3.50
2022-11-16T22:58:54.538Z,2.80
2022-11-16T23:01:21.015Z,2.72
2022-11-16T23:03:47.398Z,2.90
2022-11-16T23:06:13.876Z,2.50
2022-11-16T23:08:40.973Z,2.67
2022-11-16T23:11:27.050Z,2.72
2022-11-16T23:14:12.585Z,2.28
2022-11-16T23:16:39.603Z,2.17
2022-11-16T23:19:25.072Z,5.63
2022-11-16T23:22:10.091Z,2.30
2022-11-16T23:24:55.196Z,1.73
2022-11-16T23:27:30.589Z,5.38
2022-11-16T23:29:57.670Z,2.47
2022-11-16T23:32:23.935Z,2.40
2022-11-16T23:34:50.205Z,4.90
2022-11-16T23:37:16.475Z,4.43
2022-11-16T23:39:42.759Z,2.53
2022-11-16T23:42:28.082Z,2.97
2022-11-16T23:44:54.478Z,2.75
2022-11-16T23:47:20.783Z,8.55
2022-11-16T23:49:47.068Z,8.48
2022-11-16T23:52:13.602Z,2.50
2022-11-16T23:54:39.876Z,4.18
2022-11-16T23:57:06.351Z,2.70
2022-11-16T23:59:32.850Z,6.32
